Terminal Aerodrome Forecast
Issued by NWS Chicago, IL

Home | Current Version | Previous Version | Graphics & Text | Print | Product List | Glossary On
Versions: 1 2 3 4 5 6 7 8 9 10 11 12 13 14 15 16 17 18 19 20 21 22 23 24 25 26 27 28
000
FTUS43 KLOT 010530
TAFRFD
TAF
KRFD 010530Z 0106/0206 06012KT 5SM -RADZ BR OVC006
     FM010800 04011KT 4SM BR OVC004
     FM011600 06012KT 4SM BR VCSH OVC008
     FM012100 06012G18KT 5SM -SHRA OVC012
      TEMPO 0123/0203 2SM RA BR OVC006=

USA.gov is the U.S. government's official web portal to all federal, state and local government web resources and services.